Turpin, Oklahoma
Current Conditions -  °F | °C
As of 11:55 PM on Saturday 22 Nov 2014 (Local Time) from KLBL Reporting Station
Clear Clear  
Wind Chill: 41°   Ceiling: Unl
Heat Index: 46°   Visibility: 10mi
Dew Point: 41°   Wind: 13mph
Humidity: 81%   Direction: 190°S
Pressure: 29.54"   Gusts: NA
Location:  36.87°N, 100.88°W
Report Text: KLBL 230555Z AUTO 19011KT 10SM CLR 08/05 A2954 RMK AO1 10120 20080 57027
Loading
Personal Weather Stations






























Interactive Weather Map New forecast layout! Learn more

10-Day Weather Forecast

Advertisements
Track Severe Weather on mobile